KBOS/BOS METAR and TAF weather

Enter ICAO airport designator
Station Type Date Time Source
KBOS METAR 2019/12/07 09:54 UTC NOAA

KBOS 070954Z 31013KT 10SM BKN250 M02/M09 A3020 RMK AO2 SLP225 T10171089


Station Type Date Time Source
KBOS Decoded METAR 2019/12/07 09:54 UTC NOAA

BOSTON LOGAN INTERNATIONAL, MA, United States (KBOS) 42-22N 071-01W 54M
Dec 07, 2019 - 04:54 AM EST / 2019.12.07 0954 UTC
Wind: from the NW (310 degrees) at 15 MPH (13 KT):0
Visibility: 10 mile(s):0
Sky conditions: mostly cloudy
Temperature: 28.9 F (-1.7 C)
Windchill: 17 F (-8 C):1
Dew Point: 16.0 F (-8.9 C)
Relative Humidity: 57%
Pressure (altimeter): 30.2 in. Hg (1022 hPa)
ob: KBOS 070954Z 31013KT 10SM BKN250 M02/M09 A3020 RMK AO2 SLP225 T10171089
cycle: 10

Station Type Date Time Source
KBOS TAF 2019/12/07 09:49 UTC NOAA

TAF
AMD KBOS 070845Z 0709/0812 33011KT P6SM SCT035
FM071200 31011G20KT P6SM SCT250
FM071400 31010G17KT P6SM SCT250
FM072200 30007KT P6SM SKC
FM080100 30007KT P6SM SKC
FM081000 27003KT P6SM SKC

Example: see airport list